createdAt,value
2022-11-24T00:02:07.985Z,26.53
2022-11-24T00:05:11.638Z,26.53
2022-11-24T00:08:15.881Z,26.58
2022-11-24T00:11:21.949Z,26.60
2022-11-24T00:14:26.864Z,26.57
2022-11-24T00:17:30.427Z,26.57
2022-11-24T00:20:33.906Z,26.57
2022-11-24T00:23:38.832Z,26.58
2022-11-24T00:26:43.386Z,26.60
2022-11-24T00:29:47.916Z,26.66
2022-11-24T00:32:51.515Z,26.67
2022-11-24T00:35:58.509Z,26.71
2022-11-24T00:39:04.963Z,26.70
2022-11-24T00:42:08.341Z,26.69
2022-11-24T00:45:14.341Z,26.75
2022-11-24T00:48:17.880Z,26.83
2022-11-24T00:51:24.816Z,26.82
2022-11-24T00:54:28.140Z,26.82
2022-11-24T00:57:31.599Z,26.82
2022-11-24T01:00:36.313Z,26.86
2022-11-24T01:03:41.064Z,26.76
2022-11-24T01:06:44.345Z,26.71
2022-11-24T01:09:47.795Z,26.76
2022-11-24T01:12:51.341Z,26.78
2022-11-24T01:15:56.546Z,26.80
2022-11-24T01:19:00.493Z,26.79
2022-11-24T01:22:04.372Z,26.79
2022-11-24T01:25:09.388Z,26.82
2022-11-24T01:28:12.994Z,26.79
2022-11-24T01:31:17.794Z,26.89
2022-11-24T01:34:21.568Z,26.92
2022-11-24T01:37:25.011Z,26.92
2022-11-24T01:40:28.638Z,26.92
2022-11-24T01:43:32.715Z,26.91
2022-11-24T01:46:47.726Z,26.91
2022-11-24T01:49:57.064Z,26.92
2022-11-24T01:53:00.909Z,26.92
2022-11-24T01:56:06.545Z,26.90
2022-11-24T01:59:17.154Z,26.88
2022-11-24T02:02:23.488Z,26.89
2022-11-24T02:05:35.997Z,26.88
2022-11-24T02:08:48.126Z,26.93
2022-11-24T02:11:55.055Z,26.91
2022-11-24T02:15:00.377Z,26.87
2022-11-24T02:18:05.758Z,26.89
2022-11-24T02:21:11.051Z,26.88
2022-11-24T02:24:26.401Z,26.89
2022-11-24T02:27:31.981Z,26.80
2022-11-24T02:30:36.378Z,26.84
2022-11-24T02:33:40.215Z,26.82
2022-11-24T02:36:43.720Z,26.76
2022-11-24T02:39:47.081Z,26.63
2022-11-24T02:42:56.176Z,26.41
2022-11-24T02:45:59.552Z,26.03
2022-11-24T02:49:03.119Z,25.72
2022-11-24T02:52:08.291Z,25.44
2022-11-24T02:55:11.893Z,25.16
2022-11-24T02:58:16.639Z,25.00
2022-11-24T03:01:20.721Z,24.78
2022-11-24T03:04:24.553Z,24.64
2022-11-24T03:07:28.452Z,24.48
2022-11-24T03:10:32.132Z,24.41
2022-11-24T03:13:37.013Z,24.38
2022-11-24T03:16:40.388Z,24.33
2022-11-24T03:19:43.908Z,24.39
2022-11-24T03:22:47.170Z,24.53
2022-11-24T03:25:50.724Z,24.70
2022-11-24T03:28:57.395Z,24.91
2022-11-24T03:32:00.979Z,24.97
2022-11-24T03:35:06.039Z,25.05
2022-11-24T03:38:09.577Z,25.09
2022-11-24T03:41:13.240Z,25.12
2022-11-24T03:44:18.187Z,25.14
2022-11-24T03:47:21.402Z,25.17
2022-11-24T03:50:24.902Z,25.22
2022-11-24T03:53:30.723Z,25.25
2022-11-24T03:56:34.327Z,25.23
2022-11-24T03:59:39.213Z,25.24
2022-11-24T04:02:42.819Z,25.21
2022-11-24T04:05:46.963Z,25.21
2022-11-24T04:08:50.739Z,25.19
2022-11-24T04:12:11.667Z,25.17
2022-11-24T04:15:20.688Z,25.17
2022-11-24T04:18:24.148Z,25.10
2022-11-24T04:21:27.641Z,25.06
2022-11-24T04:24:31.521Z,25.05
2022-11-24T04:27:36.984Z,25.04
2022-11-24T04:30:44.904Z,25.03
2022-11-24T04:33:48.712Z,24.98
2022-11-24T04:36:52.158Z,24.98
2022-11-24T04:39:56.124Z,24.96
2022-11-24T04:42:59.801Z,24.96
2022-11-24T04:46:04.806Z,24.95
2022-11-24T04:49:11.561Z,24.94
2022-11-24T04:52:15.032Z,24.92
2022-11-24T04:55:18.599Z,24.90
2022-11-24T04:58:22.147Z,24.88
2022-11-24T05:01:27.119Z,24.89
2022-11-24T05:04:30.727Z,24.83
2022-11-24T05:07:34.826Z,24.84
2022-11-24T05:10:38.949Z,24.80
2022-11-24T05:13:42.257Z,24.80
2022-11-24T05:16:47.373Z,24.85
2022-11-24T05:19:50.892Z,24.83
2022-11-24T05:22:54.438Z,24.81
2022-11-24T05:26:01.987Z,24.84
2022-11-24T05:29:05.653Z,24.81
2022-11-24T05:32:10.482Z,24.85
2022-11-24T05:35:14.499Z,24.83
2022-11-24T05:38:19.596Z,24.84
2022-11-24T05:41:23.295Z,24.83
2022-11-24T05:44:26.564Z,24.82
2022-11-24T05:47:31.437Z,24.83
2022-11-24T05:50:36.652Z,24.82
2022-11-24T05:53:40.166Z,24.80
2022-11-24T05:56:43.739Z,24.81
2022-11-24T05:59:47.643Z,24.81
2022-11-24T06:02:52.631Z,24.85
2022-11-24T06:05:56.386Z,24.81
2022-11-24T06:09:00.489Z,24.80
2022-11-24T06:12:04.739Z,24.80
2022-11-24T06:15:09.283Z,24.93
2022-11-24T06:18:14.347Z,25.25
2022-11-24T06:21:18.228Z,25.54
2022-11-24T06:24:21.737Z,25.58
2022-11-24T06:27:25.835Z,25.56
2022-11-24T06:30:29.480Z,25.58
2022-11-24T06:33:36.724Z,25.69
2022-11-24T06:36:40.622Z,25.82
2022-11-24T06:39:44.094Z,25.99
2022-11-24T06:42:52.783Z,26.13
2022-11-24T06:45:56.548Z,26.33
2022-11-24T06:49:02.534Z,26.61
2022-11-24T06:52:06.150Z,26.86
2022-11-24T06:55:10.574Z,27.10
2022-11-24T06:58:14.325Z,27.26
2022-11-24T07:01:20.120Z,27.37
2022-11-24T07:04:25.336Z,27.40
2022-11-24T07:07:28.968Z,27.26
2022-11-24T07:10:32.858Z,27.17
2022-11-24T07:13:37.230Z,27.03
2022-11-24T07:16:40.778Z,26.88
2022-11-24T07:19:46.023Z,26.76
2022-11-24T07:22:49.392Z,26.68
2022-11-24T07:25:52.925Z,26.57
2022-11-24T07:28:56.346Z,26.46
2022-11-24T07:32:05.232Z,26.32
2022-11-24T07:35:10.774Z,26.13
2022-11-24T07:38:14.425Z,25.86
2022-11-24T07:41:20.414Z,25.57
2022-11-24T07:44:24.499Z,25.24
2022-11-24T07:47:28.104Z,25.00
2022-11-24T07:50:32.984Z,24.83
2022-11-24T07:53:37.562Z,24.75
2022-11-24T07:56:41.211Z,24.74
2022-11-24T07:59:44.480Z,24.85
2022-11-24T08:02:48.096Z,25.00
2022-11-24T08:09:20.281Z,25.35
2022-11-24T08:12:23.739Z,25.51
2022-11-24T08:15:27.674Z,25.63
2022-11-24T08:18:30.957Z,25.70
2022-11-24T08:21:35.831Z,25.77
2022-11-24T08:24:45.964Z,25.78
2022-11-24T08:27:49.413Z,25.78
2022-11-24T08:30:52.676Z,25.78
2022-11-24T08:33:57.100Z,25.78
2022-11-24T08:37:02.017Z,25.83
2022-11-24T08:40:06.920Z,25.80
2022-11-24T08:43:10.219Z,25.81
2022-11-24T08:46:17.937Z,25.83
2022-11-24T08:49:22.274Z,25.82
2022-11-24T08:52:27.630Z,25.87
2022-11-24T08:55:31.034Z,25.89
2022-11-24T08:58:35.333Z,25.88
2022-11-24T09:01:39.545Z,25.89
2022-11-24T09:04:43.507Z,25.88
2022-11-24T09:07:48.288Z,25.88
2022-11-24T09:10:52.140Z,25.83
2022-11-24T09:13:56.724Z,25.75
2022-11-24T09:17:00.628Z,25.69
2022-11-24T09:20:05.046Z,25.65
2022-11-24T09:23:10.876Z,25.65
2022-11-24T09:26:17.933Z,25.58
2022-11-24T09:29:21.405Z,25.52
2022-11-24T09:32:24.933Z,25.37
2022-11-24T09:35:28.681Z,25.30
2022-11-24T09:38:34.060Z,25.42
2022-11-24T09:42:03.919Z,25.62
2022-11-24T09:45:35.399Z,25.81
2022-11-24T09:48:50.544Z,25.63
2022-11-24T09:51:58.167Z,25.46
2022-11-24T09:55:16.089Z,25.37
2022-11-24T09:58:34.914Z,25.27
2022-11-24T10:01:44.100Z,25.18
2022-11-24T10:04:48.334Z,25.15
2022-11-24T10:08:11.428Z,25.14
2022-11-24T10:11:29.740Z,25.07
2022-11-24T10:15:15.038Z,25.03
2022-11-24T10:18:43.937Z,24.93
2022-11-24T10:22:15.701Z,24.83
2022-11-24T10:25:26.252Z,24.70
2022-11-24T10:28:44.086Z,24.62
2022-11-24T10:31:53.208Z,24.47
2022-11-24T10:35:07.378Z,24.38
2022-11-24T10:38:32.970Z,24.28
2022-11-24T10:41:50.607Z,24.13
2022-11-24T10:45:03.246Z,24.03
2022-11-24T10:48:22.445Z,23.93
2022-11-24T10:51:53.732Z,23.86
2022-11-24T10:55:00.102Z,23.76
2022-11-24T10:58:17.537Z,23.75
2022-11-24T11:01:33.869Z,23.71
2022-11-24T11:04:37.727Z,23.62
2022-11-24T11:07:41.274Z,23.59
2022-11-24T11:10:47.259Z,23.58
2022-11-24T11:14:03.149Z,23.56
2022-11-24T11:17:36.764Z,23.60
2022-11-24T11:20:40.897Z,23.54
2022-11-24T11:23:46.661Z,23.64
2022-11-24T11:27:02.081Z,23.70
2022-11-24T11:34:04.972Z,23.68
2022-11-24T11:37:14.861Z,23.67
2022-11-24T11:40:25.118Z,23.68
2022-11-24T11:43:35.759Z,23.71
2022-11-24T11:46:39.662Z,23.75
2022-11-24T11:49:46.295Z,23.93
2022-11-24T11:53:23.016Z,24.14
2022-11-24T11:56:31.293Z,24.33
2022-11-24T11:59:55.026Z,24.59
2022-11-24T12:03:40.642Z,24.78
2022-11-24T12:07:15.974Z,24.94
2022-11-24T12:10:35.747Z,25.05
2022-11-24T12:14:15.216Z,25.04
2022-11-24T12:17:33.499Z,25.03
2022-11-24T12:20:56.805Z,25.00
2022-11-24T12:24:16.225Z,24.94
2022-11-24T12:27:40.227Z,24.85
2022-11-24T12:31:00.497Z,24.77
2022-11-24T12:34:30.465Z,24.68
2022-11-24T12:37:54.562Z,24.57
2022-11-24T12:41:41.297Z,24.47
2022-11-24T12:45:16.219Z,24.36
2022-11-24T12:48:45.502Z,24.26
2022-11-24T12:52:00.848Z,24.15
2022-11-24T12:55:06.762Z,24.08
2022-11-24T12:58:24.445Z,24.05
2022-11-24T13:01:40.733Z,23.97
2022-11-24T13:04:55.939Z,23.94
2022-11-24T13:08:03.541Z,23.87
2022-11-24T13:11:41.234Z,23.89
2022-11-24T13:14:49.798Z,23.81
2022-11-24T13:18:08.604Z,23.80
2022-11-24T13:21:35.845Z,23.82
2022-11-24T13:24:41.493Z,23.78
2022-11-24T13:27:49.284Z,23.78
2022-11-24T13:31:12.747Z,23.81
2022-11-24T13:34:55.933Z,23.80
2022-11-24T13:37:59.349Z,23.72
2022-11-24T13:41:21.266Z,23.74
2022-11-24T13:44:25.935Z,23.72
2022-11-24T13:47:35.313Z,23.75
2022-11-24T13:51:23.137Z,23.78
2022-11-24T13:54:29.882Z,23.70
2022-11-24T13:57:35.519Z,23.71
2022-11-24T14:01:03.927Z,23.76
2022-11-24T14:04:35.234Z,23.73
2022-11-24T14:07:42.822Z,23.66
2022-11-24T14:10:46.982Z,23.68
2022-11-24T14:13:50.567Z,23.66
2022-11-24T14:17:19.175Z,23.69
2022-11-24T14:20:28.344Z,23.64
2022-11-24T14:23:32.885Z,23.62
2022-11-24T14:26:39.950Z,23.62
2022-11-24T14:29:55.877Z,23.64
2022-11-24T14:33:01.858Z,23.58
2022-11-24T14:36:06.989Z,23.60
2022-11-24T14:39:15.059Z,23.60
2022-11-24T14:42:22.600Z,23.58
2022-11-24T14:45:26.122Z,23.53
2022-11-24T14:48:33.887Z,23.54
2022-11-24T14:51:45.526Z,23.54
2022-11-24T14:54:53.422Z,23.53
2022-11-24T14:57:57.647Z,23.60
2022-11-24T15:01:19.417Z,23.86
2022-11-24T15:08:00.689Z,24.12
2022-11-24T15:11:07.702Z,24.24
2022-11-24T15:14:40.547Z,24.37
2022-11-24T15:17:50.580Z,24.45
2022-11-24T15:20:54.802Z,24.52
2022-11-24T15:24:18.874Z,24.62
2022-11-24T15:27:22.286Z,24.62
2022-11-24T15:30:26.719Z,24.69
2022-11-24T15:33:30.617Z,24.74
2022-11-24T15:36:34.683Z,24.77
2022-11-24T15:39:39.203Z,24.78
2022-11-24T15:42:43.078Z,24.79
2022-11-24T15:45:46.438Z,24.98
2022-11-24T15:48:50.130Z,25.36
2022-11-24T15:51:53.414Z,25.67
2022-11-24T15:54:59.459Z,25.61
2022-11-24T15:58:02.662Z,25.43
2022-11-24T16:01:06.426Z,25.38
2022-11-24T16:04:12.394Z,25.36
2022-11-24T16:07:17.061Z,25.39
2022-11-24T16:10:29.294Z,25.44
2022-11-24T16:13:32.897Z,25.44
2022-11-24T16:16:36.331Z,25.49
2022-11-24T16:19:41.979Z,25.51
2022-11-24T16:22:46.020Z,25.52
2022-11-24T16:25:51.209Z,25.54
2022-11-24T16:28:55.042Z,25.49
2022-11-24T16:31:58.808Z,25.47
2022-11-24T16:35:02.162Z,25.39
2022-11-24T16:38:05.843Z,25.33
2022-11-24T16:41:11.635Z,25.29
2022-11-24T16:44:15.387Z,25.16
2022-11-24T16:47:19.192Z,25.07
2022-11-24T16:50:23.029Z,24.99
2022-11-24T16:53:26.279Z,24.90
2022-11-24T16:56:32.643Z,24.82
2022-11-24T16:59:35.865Z,24.69
2022-11-24T17:02:40.226Z,24.61
2022-11-24T17:05:43.741Z,24.50
2022-11-24T17:08:48.879Z,24.42
2022-11-24T17:11:53.483Z,24.34
2022-11-24T17:15:24.472Z,24.26
2022-11-24T17:18:25.123Z,24.14
2022-11-24T17:21:29.309Z,24.08
2022-11-24T17:24:32.712Z,24.01
2022-11-24T17:27:38.079Z,24.01
2022-11-24T17:30:41.771Z,24.10
2022-11-24T17:33:45.467Z,24.31
2022-11-24T17:36:48.697Z,24.43
2022-11-24T17:40:12.964Z,24.52
2022-11-24T17:43:16.895Z,24.68
2022-11-24T17:46:21.374Z,24.84
2022-11-24T17:49:24.712Z,25.17
2022-11-24T17:52:30.825Z,25.65
2022-11-24T17:55:36.629Z,26.06
2022-11-24T17:58:43.285Z,26.49
2022-11-24T18:01:46.951Z,26.82
2022-11-24T18:04:50.661Z,27.08
2022-11-24T18:07:55.149Z,27.29
2022-11-24T18:11:05.504Z,27.51
2022-11-24T18:14:11.153Z,27.76
2022-11-24T18:17:15.129Z,27.92
2022-11-24T18:20:21.036Z,28.08
2022-11-24T18:23:25.236Z,28.16
2022-11-24T18:26:28.654Z,28.23
2022-11-24T18:29:36.707Z,28.31
2022-11-24T18:32:40.656Z,28.33
2022-11-24T18:35:44.955Z,28.37
2022-11-24T18:38:48.320Z,28.41
2022-11-24T18:41:52.398Z,28.44
2022-11-24T18:44:57.613Z,28.47
2022-11-24T18:48:01.704Z,28.45
2022-11-24T18:51:05.671Z,28.42
2022-11-24T18:54:10.202Z,28.41
2022-11-24T18:57:13.374Z,28.33
2022-11-24T19:00:19.104Z,28.31
2022-11-24T19:03:22.567Z,28.22
2022-11-24T19:06:32.337Z,28.23
2022-11-24T19:09:36.169Z,28.18
2022-11-24T19:12:39.906Z,28.13
2022-11-24T19:15:44.468Z,28.06
2022-11-24T19:18:53.625Z,28.01
2022-11-24T19:21:57.648Z,27.93
2022-11-24T19:25:01.194Z,27.86
2022-11-24T19:28:04.935Z,27.85
2022-11-24T19:31:13.989Z,27.87
2022-11-24T19:34:17.591Z,27.84
2022-11-24T19:37:21.482Z,27.80
2022-11-24T19:40:24.730Z,27.78
2022-11-24T19:43:28.452Z,27.76
2022-11-24T19:46:33.476Z,27.75
2022-11-24T19:49:37.085Z,27.71
2022-11-24T19:52:40.312Z,27.69
2022-11-24T19:55:43.725Z,27.64
2022-11-24T19:58:48.470Z,27.65
2022-11-24T20:01:54.322Z,27.65
2022-11-24T20:04:57.592Z,27.62
2022-11-24T20:08:01.554Z,27.61
2022-11-24T20:11:07.224Z,27.64
2022-11-24T20:14:14.589Z,27.66
2022-11-24T20:17:20.247Z,27.61
2022-11-24T20:20:24.467Z,27.59
2022-11-24T20:23:27.638Z,27.62
2022-11-24T20:26:35.453Z,27.66
2022-11-24T20:29:45.272Z,27.62
2022-11-24T20:32:51.875Z,27.63
2022-11-24T20:35:55.557Z,27.61
2022-11-24T20:39:02.834Z,27.67
2022-11-24T20:42:07.257Z,27.68
2022-11-24T20:45:10.989Z,27.69
2022-11-24T20:48:15.658Z,27.65
2022-11-24T20:51:22.483Z,27.61
2022-11-24T20:54:25.943Z,27.60
2022-11-24T20:57:29.859Z,27.61
2022-11-24T21:00:33.206Z,27.65
2022-11-24T21:03:43.064Z,27.68
2022-11-24T21:06:47.483Z,27.63
2022-11-24T21:09:51.141Z,27.61
2022-11-24T21:12:54.353Z,27.59
2022-11-24T21:15:58.739Z,27.62
2022-11-24T21:19:08.807Z,27.66
2022-11-24T21:22:12.764Z,27.61
2022-11-24T21:25:16.138Z,27.63
2022-11-24T21:28:19.770Z,27.56
2022-11-24T21:31:23.117Z,27.54
2022-11-24T21:34:28.843Z,27.54
2022-11-24T21:37:32.005Z,27.51
2022-11-24T21:40:35.906Z,27.51
2022-11-24T21:43:39.401Z,27.48
2022-11-24T21:46:48.049Z,27.46
2022-11-24T21:49:55.740Z,27.48
2022-11-24T21:53:03.473Z,27.43
2022-11-24T21:56:13.704Z,27.42
2022-11-24T21:59:17.676Z,27.39
2022-11-24T22:02:21.224Z,27.36
2022-11-24T22:05:26.358Z,27.38
2022-11-24T22:08:31.747Z,27.36
2022-11-24T22:11:35.344Z,27.32
2022-11-24T22:14:40.544Z,27.28
2022-11-24T22:17:44.527Z,27.30
2022-11-24T22:20:56.434Z,27.31
2022-11-24T22:24:01.227Z,27.28
2022-11-24T22:27:04.337Z,27.27
2022-11-24T22:30:10.644Z,27.27
2022-11-24T22:33:14.916Z,27.28
2022-11-24T22:36:22.647Z,27.26
2022-11-24T22:39:26.043Z,27.24
2022-11-24T22:42:29.666Z,27.25
2022-11-24T22:45:33.088Z,27.22
2022-11-24T22:48:36.880Z,27.25
2022-11-24T22:51:41.477Z,27.27
2022-11-24T22:54:45.063Z,27.25
2022-11-24T22:57:48.739Z,27.25
2022-11-24T23:00:52.772Z,27.26
2022-11-24T23:03:56.333Z,27.28
2022-11-24T23:07:02.560Z,27.31
2022-11-24T23:10:06.686Z,27.30
2022-11-24T23:13:10.262Z,27.32
2022-11-24T23:16:17.017Z,27.32
2022-11-24T23:19:20.635Z,27.31
2022-11-24T23:22:25.340Z,27.33
2022-11-24T23:25:34.695Z,27.36
2022-11-24T23:28:38.412Z,27.36
2022-11-24T23:31:42.252Z,27.33
2022-11-24T23:34:45.504Z,27.34
2022-11-24T23:38:07.053Z,27.36
2022-11-24T23:41:15.206Z,27.35
2022-11-24T23:44:18.899Z,27.33
2022-11-24T23:47:22.087Z,27.36
2022-11-24T23:50:25.859Z,27.36
2022-11-24T23:53:32.740Z,27.37
2022-11-24T23:56:37.510Z,27.35
2022-11-24T23:59:40.753Z,27.35
